Time;durP1;ratioP1;P1;durP2;ratioP2;P2;SDS_P1;SDS_P2;PMS_P1;PMS_P2;Temp;Humidity;BMP_temperature;BMP_pressure;BME280_temperature;BME280_humidity;BME280_pressure;Samples;Min_cycle;Max_cycle;Signal;HPM_P1;HPM_P2
2023/03/04 00:02:33;;;;;;;31.08;16.20;;;;;;;;;;10338681;28;20630;-74
2023/03/04 00:07:34;;;;;;;32.05;15.88;;;;;;;;;;10330433;28;20030;-73
2023/03/04 00:12:34;;;;;;;29.00;15.27;;;;;;;;;;10341429;28;20522;-72
2023/03/04 00:17:35;;;;;;;31.87;14.90;;;;;;;;;;10338262;28;20026;-70
2023/03/04 00:22:36;;;;;;;34.05;16.55;;;;;;;;;;10362779;28;20443;-77
2023/03/04 00:27:36;;;;;;;38.08;20.95;;;;;;;;;;10354461;28;20040;-74
2023/03/04 00:32:36;;;;;;;32.55;16.17;;;;;;;;;;10338615;28;20030;-73
2023/03/04 00:37:37;;;;;;;29.63;14.75;;;;;;;;;;10347049;28;20030;-77
2023/03/04 00:42:37;;;;;;;28.70;13.68;;;;;;;;;;10371350;28;20037;-79
2023/03/04 00:47:37;;;;;;;30.87;14.00;;;;;;;;;;10342539;28;20032;-76
2023/03/04 00:52:38;;;;;;;27.80;14.02;;;;;;;;;;10356088;28;20029;-73
2023/03/04 00:57:38;;;;;;;24.23;12.60;;;;;;;;;;10335989;28;20048;-74
2023/03/04 01:02:40;;;;;;;27.80;15.03;;;;;;;;;;10331336;28;20049;-75
2023/03/04 01:07:40;;;;;;;28.20;15.02;;;;;;;;;;10339308;28;20124;-74
2023/03/04 01:12:41;;;;;;;26.80;13.98;;;;;;;;;;10331753;28;20017;-80
2023/03/04 01:17:41;;;;;;;31.83;14.40;;;;;;;;;;10338599;28;20096;-75
2023/03/04 01:22:41;;;;;;;26.08;14.75;;;;;;;;;;10335447;28;20226;-79
2023/03/04 01:27:43;;;;;;;30.83;14.60;;;;;;;;;;10355470;28;20030;-78
2023/03/04 01:32:43;;;;;;;24.75;13.30;;;;;;;;;;10338929;28;20412;-80
2023/03/04 01:37:44;;;;;;;26.48;14.23;;;;;;;;;;10357321;28;20591;-78
2023/03/04 01:42:44;;;;;;;28.10;14.45;;;;;;;;;;10336827;28;20022;-76
2023/03/04 01:47:47;;;;;;;24.98;13.30;;;;;;;;;;10335743;28;20037;-82
2023/03/04 01:52:53;;;;;;;27.05;13.07;;;;;;;;;;10355369;28;20025;-77
2023/03/04 01:57:56;;;;;;;27.20;13.45;;;;;;;;;;10338020;28;20439;-76
2023/03/04 02:03:22;;;;;;;27.67;13.38;;;;;;;;;;10355122;28;20053;-78
2023/03/04 02:08:23;;;;;;;27.65;13.18;;;;;;;;;;10355231;28;20033;-78
2023/03/04 02:13:47;;;;;;;25.75;12.95;;;;;;;;;;10341902;28;20022;-69
2023/03/04 02:18:47;;;;;;;26.02;14.30;;;;;;;;;;10355414;28;20006;-76
2023/03/04 02:23:57;;;;;;;30.58;15.80;;;;;;;;;;10343362;28;20061;-78
2023/03/04 02:28:58;;;;;;;31.35;15.93;;;;;;;;;;10339951;28;20471;-78
2023/03/04 02:34:00;;;;;;;27.80;13.38;;;;;;;;;;10365044;28;20034;-74
2023/03/04 02:39:07;;;;;;;37.05;15.18;;;;;;;;;;10339327;28;20364;-76
2023/03/04 02:44:15;;;;;;;26.27;13.52;;;;;;;;;;10369236;28;20028;-70
2023/03/04 02:49:22;;;;;;;25.45;14.60;;;;;;;;;;10345348;28;20040;-76
2023/03/04 02:54:23;;;;;;;25.50;12.50;;;;;;;;;;10349907;28;20032;-79
2023/03/04 02:59:25;;;;;;;30.42;14.65;;;;;;;;;;10343646;28;20096;-78
2023/03/04 03:04:28;;;;;;;23.90;12.55;;;;;;;;;;10363527;28;20045;-75
2023/03/04 03:09:28;;;;;;;29.02;13.23;;;;;;;;;;10343047;28;20145;-77
2023/03/04 03:14:28;;;;;;;31.40;14.43;;;;;;;;;;10363457;28;20480;-73
2023/03/04 03:19:29;;;;;;;25.77;12.60;;;;;;;;;;10344203;28;20022;-80
2023/03/04 03:24:36;;;;;;;26.05;13.27;;;;;;;;;;10364532;28;20029;-75
2023/03/04 03:29:43;;;;;;;25.60;13.50;;;;;;;;;;10346668;28;20029;-78
2023/03/04 03:34:44;;;;;;;32.17;14.07;;;;;;;;;;10344971;28;20037;-76
2023/03/04 03:39:44;;;;;;;27.23;13.43;;;;;;;;;;10345234;28;20226;-74
2023/03/04 03:44:45;;;;;;;25.38;12.27;;;;;;;;;;10362317;28;20801;-80
2023/03/04 03:49:45;;;;;;;28.33;14.07;;;;;;;;;;10338247;28;20403;-72
2023/03/04 03:54:47;;;;;;;26.83;14.07;;;;;;;;;;10363163;28;20024;-78
2023/03/04 03:59:47;;;;;;;26.38;15.43;;;;;;;;;;10340337;28;20038;-75
2023/03/04 04:04:47;;;;;;;29.85;13.77;;;;;;;;;;10334306;28;20038;-79
2023/03/04 04:09:48;;;;;;;30.45;14.57;;;;;;;;;;10344281;28;20045;-74
2023/03/04 04:14:48;;;;;;;24.37;13.20;;;;;;;;;;10344278;28;20138;-73
2023/03/04 04:19:48;;;;;;;35.40;15.40;;;;;;;;;;10340831;28;20025;-76
2023/03/04 04:24:49;;;;;;;37.97;15.03;;;;;;;;;;10368628;28;20070;-80
2023/03/04 04:29:49;;;;;;;39.20;15.88;;;;;;;;;;10346160;28;20032;-73
2023/03/04 04:34:49;;;;;;;37.57;16.63;;;;;;;;;;10321269;28;20050;-77
2023/03/04 04:39:50;;;;;;;33.40;16.27;;;;;;;;;;10348492;28;20114;-78
2023/03/04 04:44:51;;;;;;;37.17;17.38;;;;;;;;;;10352810;28;20026;-83
2023/03/04 04:49:52;;;;;;;36.60;16.42;;;;;;;;;;10368778;28;20432;-78
2023/03/04 04:54:54;;;;;;;35.67;16.38;;;;;;;;;;10371238;28;20032;-79
2023/03/04 04:59:54;;;;;;;37.58;16.73;;;;;;;;;;10346532;28;20476;-75
2023/03/04 05:04:54;;;;;;;31.27;14.67;;;;;;;;;;10357073;28;20026;-74
2023/03/04 05:09:56;;;;;;;24.65;12.75;;;;;;;;;;10325990;28;20105;-82
2023/03/04 05:14:56;;;;;;;33.42;14.90;;;;;;;;;;10329584;28;20038;-77
2023/03/04 05:19:57;;;;;;;26.10;12.45;;;;;;;;;;10346236;28;20030;-78
2023/03/04 05:24:57;;;;;;;26.45;12.70;;;;;;;;;;10345306;28;20037;-75
2023/03/04 05:30:00;;;;;;;24.85;12.70;;;;;;;;;;10344919;28;20017;-74
2023/03/04 05:35:00;;;;;;;26.20;12.48;;;;;;;;;;10342061;28;20026;-76
2023/03/04 05:40:03;;;;;;;27.23;12.15;;;;;;;;;;10341798;28;20093;-76
2023/03/04 05:45:04;;;;;;;29.13;12.60;;;;;;;;;;10356205;28;20029;-76
2023/03/04 05:50:04;;;;;;;26.35;10.63;;;;;;;;;;10358045;28;20034;-77
2023/03/04 05:55:05;;;;;;;24.95;11.40;;;;;;;;;;10337924;28;20030;-74
2023/03/04 06:00:08;;;;;;;24.55;10.25;;;;;;;;;;10320921;28;20049;-74
2023/03/04 06:05:09;;;;;;;27.88;12.30;;;;;;;;;;10338482;28;20075;-74
2023/03/04 06:10:10;;;;;;;23.95;10.43;;;;;;;;;;10321818;28;20017;-74
2023/03/04 06:15:11;;;;;;;28.20;11.48;;;;;;;;;;10322901;28;20131;-75
2023/03/04 06:20:11;;;;;;;18.55;9.15;;;;;;;;;;10345875;28;20236;-79
2023/03/04 06:25:11;;;;;;;25.42;9.80;;;;;;;;;;10349410;28;20029;-79
2023/03/04 06:30:12;;;;;;;25.13;10.93;;;;;;;;;;10348672;28;20026;-82
2023/03/04 06:35:13;;;;;;;22.33;11.70;;;;;;;;;;10344301;28;20387;-73
2023/03/04 06:40:13;;;;;;;22.38;11.27;;;;;;;;;;10347418;28;20040;-73
2023/03/04 06:45:14;;;;;;;27.20;11.13;;;;;;;;;;10353226;28;20025;-78
2023/03/04 06:50:14;;;;;;;24.43;11.50;;;;;;;;;;10350846;28;20497;-76
2023/03/04 06:55:14;;;;;;;24.57;11.73;;;;;;;;;;10360106;28;20030;-72
2023/03/04 07:00:16;;;;;;;24.20;12.03;;;;;;;;;;10345044;28;20057;-79
2023/03/04 07:05:19;;;;;;;24.35;11.23;;;;;;;;;;10367281;28;20148;-73
2023/03/04 07:10:20;;;;;;;25.67;12.85;;;;;;;;;;10345801;28;20488;-75
2023/03/04 07:15:20;;;;;;;28.30;14.05;;;;;;;;;;10333296;28;20021;-79
2023/03/04 07:20:21;;;;;;;27.70;12.87;;;;;;;;;;10337764;28;20068;-81
2023/03/04 07:25:21;;;;;;;45.08;15.02;;;;;;;;;;10354064;28;20116;-75
2023/03/04 07:30:22;;;;;;;31.33;15.13;;;;;;;;;;10339049;28;20395;-80
2023/03/04 07:35:43;;;;;;;33.10;15.63;;;;;;;;;;10341069;28;20096;-75
2023/03/04 07:40:45;;;;;;;31.60;15.95;;;;;;;;;;10339066;28;20464;-76
2023/03/04 07:45:45;;;;;;;42.95;18.88;;;;;;;;;;10340929;28;20022;-77
2023/03/04 07:50:47;;;;;;;36.35;16.08;;;;;;;;;;10337877;28;20068;-75
2023/03/04 07:55:48;;;;;;;29.42;15.60;;;;;;;;;;10316693;28;20030;-76
2023/03/04 08:00:49;;;;;;;39.13;18.33;;;;;;;;;;10378226;23;20045;-76
2023/03/04 08:05:50;;;;;;;40.35;17.20;;;;;;;;;;10432940;28;20040;-75
2023/03/04 08:10:50;;;;;;;43.20;19.67;;;;;;;;;;10429292;28;20032;-72
2023/03/04 08:15:55;;;;;;;36.53;16.73;;;;;;;;;;10420792;28;20028;-73
2023/03/04 08:20:56;;;;;;;35.83;17.77;;;;;;;;;;10415577;28;20491;-79
2023/03/04 08:25:56;;;;;;;31.27;15.90;;;;;;;;;;10427826;28;20032;-80
2023/03/04 08:30:57;;;;;;;35.07;16.43;;;;;;;;;;10412027;28;20040;-76
2023/03/04 08:35:57;;;;;;;39.75;17.80;;;;;;;;;;10411681;28;20040;-79
2023/03/04 08:40:57;;;;;;;34.65;16.50;;;;;;;;;;10434999;28;20040;-80
2023/03/04 08:45:58;;;;;;;31.63;16.40;;;;;;;;;;10394172;28;20177;-79
2023/03/04 08:50:58;;;;;;;32.88;15.63;;;;;;;;;;10419223;28;20151;-74
2023/03/04 08:55:59;;;;;;;41.70;16.60;;;;;;;;;;10432570;28;20464;-76
2023/03/04 09:01:06;;;;;;;29.15;14.85;;;;;;;;;;10424757;28;20134;-73
2023/03/04 09:06:08;;;;;;;36.40;17.10;;;;;;;;;;10452717;28;20040;-79
2023/03/04 09:11:09;;;;;;;32.45;15.70;;;;;;;;;;10430704;28;20025;-74
2023/03/04 09:16:11;;;;;;;40.88;19.10;;;;;;;;;;10419941;28;20681;-75
2023/03/04 09:21:12;;;;;;;35.72;16.85;;;;;;;;;;10419272;28;20029;-76
2023/03/04 09:26:20;;;;;;;44.95;20.05;;;;;;;;;;10407625;28;20410;-76
2023/03/04 09:31:21;;;;;;;38.45;18.05;;;;;;;;;;10435911;28;20037;-75
2023/03/04 09:36:23;;;;;;;36.13;17.88;;;;;;;;;;10417393;28;20035;-78
2023/03/04 09:41:25;;;;;;;34.08;18.13;;;;;;;;;;10429876;28;20396;-75
2023/03/04 09:46:34;;;;;;;37.58;17.02;;;;;;;;;;10438629;28;20036;-75
2023/03/04 09:51:41;;;;;;;34.63;16.88;;;;;;;;;;10420641;28;20498;-75
2023/03/04 09:56:41;;;;;;;35.47;19.05;;;;;;;;;;10415507;28;20519;-81
2023/03/04 10:01:46;;;;;;;33.33;16.83;;;;;;;;;;10406048;28;20064;-75
2023/03/04 10:06:53;;;;;;;31.83;17.17;;;;;;;;;;10441552;28;20029;-74
2023/03/04 10:12:00;;;;;;;31.95;16.50;;;;;;;;;;10444492;28;20107;-77
2023/03/04 10:17:07;;;;;;;29.48;15.88;;;;;;;;;;10410639;28;20021;-80
2023/03/04 10:22:23;;;;;;;30.88;15.60;;;;;;;;;;10429814;28;20032;-75
2023/03/04 10:27:24;;;;;;;29.92;15.98;;;;;;;;;;10440222;28;20128;-75
2023/03/04 10:32:24;;;;;;;37.30;16.52;;;;;;;;;;10442988;28;20478;-75
2023/03/04 10:37:41;;;;;;;30.45;15.70;;;;;;;;;;10422210;28;20028;-75
2023/03/04 10:42:41;;;;;;;35.47;16.45;;;;;;;;;;10383334;28;20132;-76
2023/03/04 10:47:50;;;;;;;40.88;17.45;;;;;;;;;;10438862;28;20035;-78
2023/03/04 10:52:52;;;;;;;36.35;17.45;;;;;;;;;;10440383;28;20025;-82
2023/03/04 10:57:54;;;;;;;33.45;16.58;;;;;;;;;;10422397;28;20459;-80
2023/03/04 11:03:14;;;;;;;33.25;16.45;;;;;;;;;;10447384;28;20053;-75
2023/03/04 11:08:19;;;;;;;39.58;15.93;;;;;;;;;;10437508;28;20408;-77
2023/03/04 11:13:22;;;;;;;32.67;15.27;;;;;;;;;;10449084;28;20033;-79
2023/03/04 11:18:29;;;;;;;35.50;15.13;;;;;;;;;;10446405;28;20017;-75
2023/03/04 11:23:53;;;;;;;28.27;15.00;;;;;;;;;;10432069;28;20035;-77
2023/03/04 11:28:58;;;;;;;30.45;14.90;;;;;;;;;;10420866;28;20039;-77
2023/03/04 11:33:58;;;;;;;25.35;13.95;;;;;;;;;;10402021;28;20052;-76
2023/03/04 11:38:59;;;;;;;29.73;15.35;;;;;;;;;;10406184;28;20111;-76
2023/03/04 11:43:59;;;;;;;31.83;14.20;;;;;;;;;;10398346;28;20419;-71
2023/03/04 11:49:18;;;;;;;35.83;14.77;;;;;;;;;;10419826;28;20540;-78
2023/03/04 11:54:27;;;;;;;36.90;16.80;;;;;;;;;;10428157;28;20028;-80
2023/03/04 11:59:36;;;;;;;31.13;15.75;;;;;;;;;;10428843;28;20597;-78
2023/03/04 12:04:36;;;;;;;;;;;;;;;;;;10428086;28;20028;-75
2023/03/04 12:09:56;;;;;;;34.38;14.98;;;;;;;;;;10409502;28;19905;-77
2023/03/04 12:15:09;;;;;;;31.33;16.75;;;;;;;;;;10385694;28;20010;-74
2023/03/04 12:20:16;;;;;;;30.92;16.60;;;;;;;;;;10417546;28;20529;-77
2023/03/04 12:25:33;;;;;;;34.13;14.65;;;;;;;;;;10426422;28;20025;-78
2023/03/04 12:30:34;;;;;;;31.77;16.52;;;;;;;;;;10444049;28;20033;-74
2023/03/04 12:35:37;;;;;;;43.35;17.15;;;;;;;;;;10403594;28;20020;-78
2023/03/04 12:40:44;;;;;;;32.03;16.42;;;;;;;;;;10414618;28;20029;-78
2023/03/04 12:46:13;;;;;;;39.15;17.77;;;;;;;;;;10386684;28;20111;-74
2023/03/04 12:51:44;;;;;;;35.00;16.65;;;;;;;;;;10377415;28;20045;-76
2023/03/04 12:56:49;;;;;;;31.05;15.45;;;;;;;;;;10409438;28;20074;-76
2023/03/04 13:02:02;;;;;;;27.40;14.65;;;;;;;;;;10425323;28;20052;-79
2023/03/04 13:07:08;;;;;;;31.92;15.93;;;;;;;;;;10422812;28;20047;-77
2023/03/04 13:12:18;;;;;;;34.22;16.02;;;;;;;;;;10412989;28;20078;-78
2023/03/04 13:17:48;;;;;;;37.15;15.07;;;;;;;;;;10438712;28;20090;-77
2023/03/04 13:22:54;;;;;;;30.23;15.10;;;;;;;;;;10363458;28;20515;-77
2023/03/04 13:28:10;;;;;;;28.13;14.40;;;;;;;;;;10434363;28;20578;-77
2023/03/04 13:33:12;;;;;;;29.90;15.63;;;;;;;;;;10422971;28;20405;-76
2023/03/04 13:38:35;;;;;;;32.28;16.25;;;;;;;;;;10422732;28;20032;-77
2023/03/04 13:43:54;;;;;;;38.28;17.05;;;;;;;;;;10441424;28;20032;-77
2023/03/04 13:48:54;;;;;;;35.20;15.85;;;;;;;;;;10432999;28;20052;-80
2023/03/04 13:53:57;;;;;;;36.60;15.13;;;;;;;;;;10422220;28;20115;-77
2023/03/04 13:59:04;;;;;;;37.67;17.00;;;;;;;;;;10425667;28;20478;-73
2023/03/04 14:04:15;;;;;;;31.30;16.42;;;;;;;;;;10424219;28;20679;-76
2023/03/04 14:09:20;;;;;;;31.17;16.10;;;;;;;;;;10438514;28;20021;-73
2023/03/04 14:14:41;;;;;;;40.22;17.35;;;;;;;;;;10408340;28;20052;-75
2023/03/04 14:19:45;;;;;;;29.45;15.75;;;;;;;;;;10420655;28;20082;-77
2023/03/04 14:25:15;;;;;;;31.45;15.43;;;;;;;;;;10438752;28;20029;-76
2023/03/04 14:30:18;;;;;;;31.95;15.80;;;;;;;;;;10405979;28;20033;-75
2023/03/04 14:35:23;;;;;;;31.95;16.05;;;;;;;;;;10441514;28;20031;-76
2023/03/04 14:40:45;;;;;;;30.88;15.82;;;;;;;;;;10467138;28;20064;-81
2023/03/04 14:45:48;;;;;;;37.25;15.85;;;;;;;;;;10439217;28;20506;-74
2023/03/04 14:50:49;;;;;;;30.00;15.85;;;;;;;;;;10428006;28;20020;-76
2023/03/04 14:56:06;;;;;;;32.55;16.90;;;;;;;;;;10429753;28;20024;-75
2023/03/04 15:01:13;;;;;;;37.38;15.88;;;;;;;;;;10430001;28;20052;-76
2023/03/04 15:06:20;;;;;;;28.67;15.10;;;;;;;;;;10413393;28;20029;-77
2023/03/04 15:11:23;;;;;;;33.25;16.20;;;;;;;;;;10422345;28;20033;-78
2023/03/04 15:16:25;;;;;;;35.70;15.52;;;;;;;;;;10406719;28;20074;-82
2023/03/04 15:21:35;;;;;;;43.65;17.15;;;;;;;;;;10428494;28;20103;-81
2023/03/04 15:26:40;;;;;;;39.97;15.90;;;;;;;;;;10426803;28;20021;-76
2023/03/04 15:31:40;;;;;;;39.08;18.08;;;;;;;;;;10426050;28;20017;-79
2023/03/04 15:36:44;;;;;;;37.70;17.70;;;;;;;;;;10415330;28;20394;-75
2023/03/04 15:41:49;;;;;;;37.38;16.75;;;;;;;;;;10426419;28;20033;-76
2023/03/04 15:46:49;;;;;;;34.33;17.58;;;;;;;;;;10442962;28;20025;-78
2023/03/04 15:51:49;;;;;;;37.33;18.02;;;;;;;;;;10425389;28;20032;-75
2023/03/04 15:56:50;;;;;;;39.80;18.30;;;;;;;;;;10446082;28;20017;-77
2023/03/04 16:01:50;;;;;;;36.38;16.60;;;;;;;;;;10420969;28;20531;-75
2023/03/04 16:06:50;;;;;;;41.95;17.20;;;;;;;;;;10425839;28;20025;-77
2023/03/04 16:11:53;;;;;;;35.85;17.10;;;;;;;;;;10426063;28;20048;-77
2023/03/04 16:16:53;;;;;;;40.10;16.63;;;;;;;;;;10418525;28;20045;-73
2023/03/04 16:21:53;;;;;;;34.53;16.83;;;;;;;;;;10421622;28;20625;-73
2023/03/04 16:26:53;;;;;;;34.72;17.92;;;;;;;;;;10420892;28;20127;-77
2023/03/04 16:31:54;;;;;;;35.15;18.38;;;;;;;;;;10425528;28;20051;-72
2023/03/04 16:36:54;;;;;;;43.88;20.83;;;;;;;;;;10405949;28;20025;-75
2023/03/04 16:41:56;;;;;;;35.50;19.20;;;;;;;;;;10443886;28;20024;-76
2023/03/04 16:46:56;;;;;;;37.58;18.27;;;;;;;;;;10411541;28;20487;-77
2023/03/04 16:51:56;;;;;;;40.95;18.15;;;;;;;;;;10517771;23;20139;-74
2023/03/04 16:57:02;;;;;;;34.17;18.30;;;;;;;;;;10505650;28;20019;-79
2023/03/04 17:02:17;;;;;;;44.22;18.00;;;;;;;;;;10471559;28;20050;-77
2023/03/04 17:07:18;;;;;;;50.20;18.40;;;;;;;;;;10519002;28;20020;-76
2023/03/04 17:12:18;;;;;;;39.30;19.27;;;;;;;;;;10510270;28;20494;-81
2023/03/04 17:17:18;;;;;;;42.67;19.25;;;;;;;;;;10508630;28;20460;-75
2023/03/04 17:22:18;;;;;;;46.38;18.98;;;;;;;;;;10505824;28;20024;-77
2023/03/04 17:27:19;;;;;;;37.10;19.10;;;;;;;;;;10505963;28;20522;-75
2023/03/04 17:32:19;;;;;;;42.35;19.65;;;;;;;;;;10503579;28;20024;-78
2023/03/04 17:37:20;;;;;;;45.77;21.00;;;;;;;;;;10511255;28;20035;-76
2023/03/04 17:42:20;;;;;;;50.15;19.73;;;;;;;;;;10515029;28;20270;-81
2023/03/04 17:47:21;;;;;;;55.53;26.00;;;;;;;;;;10517480;28;20110;-76
2023/03/04 17:52:21;;;;;;;57.35;27.02;;;;;;;;;;10506083;28;20298;-77
2023/03/04 17:57:21;;;;;;;69.40;30.88;;;;;;;;;;10497101;28;20486;-76
2023/03/04 18:02:22;;;;;;;73.55;33.80;;;;;;;;;;10479422;28;20473;-79
2023/03/04 18:07:22;;;;;;;70.45;32.33;;;;;;;;;;10483176;28;20083;-76
2023/03/04 18:12:22;;;;;;;70.38;30.00;;;;;;;;;;10485274;28;20028;-78
2023/03/04 18:17:22;;;;;;;59.25;25.98;;;;;;;;;;10474817;28;20035;-80
2023/03/04 18:22:24;;;;;;;53.72;27.73;;;;;;;;;;10487866;28;20028;-79
2023/03/04 18:27:44;;;;;;;56.75;25.38;;;;;;;;;;10507515;28;20052;-81
2023/03/04 18:32:46;;;;;;;60.35;29.10;;;;;;;;;;10499447;28;20549;-83
2023/03/04 18:37:46;;;;;;;52.90;25.38;;;;;;;;;;10486596;28;20044;-76
2023/03/04 18:42:49;;;;;;;62.03;26.25;;;;;;;;;;10500873;28;20111;-77
2023/03/04 18:47:50;;;;;;;50.25;24.55;;;;;;;;;;10494599;28;20482;-78
2023/03/04 18:52:53;;;;;;;64.68;24.33;;;;;;;;;;10493718;28;20034;-81
2023/03/04 18:57:56;;;;;;;62.55;26.33;;;;;;;;;;10493870;28;20074;-72
2023/03/04 19:02:57;;;;;;;65.93;29.90;;;;;;;;;;10498546;28;20123;-79
2023/03/04 19:07:57;;;;;;;63.90;30.67;;;;;;;;;;10481460;28;20088;-77
2023/03/04 19:12:58;;;;;;;58.80;27.43;;;;;;;;;;10496083;28;20127;-76
2023/03/04 19:17:59;;;;;;;64.45;26.45;;;;;;;;;;10507892;28;20350;-79
2023/03/04 19:22:59;;;;;;;57.60;27.75;;;;;;;;;;10503101;28;20070;-77
2023/03/04 19:27:59;;;;;;;72.05;30.27;;;;;;;;;;10501792;28;20028;-76
2023/03/04 19:33:13;;;;;;;67.87;29.17;;;;;;;;;;10491827;28;20127;-78
2023/03/04 19:38:14;;;;;;;64.72;28.45;;;;;;;;;;10484744;28;20033;-73
2023/03/04 19:43:14;;;;;;;63.38;30.05;;;;;;;;;;10500030;28;20029;-72
2023/03/04 19:48:14;;;;;;;68.32;30.35;;;;;;;;;;10465260;28;20082;-73
2023/03/04 19:53:17;;;;;;;73.40;33.57;;;;;;;;;;10481181;28;20623;-73
2023/03/04 19:58:18;;;;;;;66.55;30.60;;;;;;;;;;10495374;28;20027;-75
2023/03/04 20:03:18;;;;;;;66.07;30.33;;;;;;;;;;10479147;28;20024;-76
2023/03/04 20:08:18;;;;;;;72.50;33.38;;;;;;;;;;10497659;28;20020;-75
2023/03/04 20:13:19;;;;;;;62.35;29.33;;;;;;;;;;10481449;28;20028;-79
2023/03/04 20:18:19;;;;;;;65.15;30.02;;;;;;;;;;10484107;28;21040;-73
2023/03/04 20:23:20;;;;;;;63.42;28.45;;;;;;;;;;10504183;28;20090;-74
2023/03/04 20:28:21;;;;;;;58.95;28.75;;;;;;;;;;10501911;28;20032;-73
2023/03/04 20:33:21;;;;;;;67.65;31.30;;;;;;;;;;10497055;28;20016;-74
2023/03/04 20:38:22;;;;;;;73.55;33.85;;;;;;;;;;10492286;28;20019;-76
2023/03/04 20:43:23;;;;;;;78.40;35.67;;;;;;;;;;10497805;28;20027;-74
2023/03/04 20:48:23;;;;;;;73.97;33.80;;;;;;;;;;10492617;28;20068;-76
2023/03/04 20:53:24;;;;;;;82.38;35.72;;;;;;;;;;10504776;28;20478;-73
2023/03/04 20:58:24;;;;;;;75.97;30.92;;;;;;;;;;10500474;28;20398;-76
2023/03/04 21:03:26;;;;;;;66.72;32.22;;;;;;;;;;10490714;28;20076;-75
2023/03/04 21:08:34;;;;;;;64.40;31.20;;;;;;;;;;10487866;28;20020;-74
2023/03/04 21:13:35;;;;;;;75.45;28.95;;;;;;;;;;10498243;28;20035;-79
2023/03/04 21:18:36;;;;;;;58.72;26.05;;;;;;;;;;10484100;28;20102;-75
2023/03/04 21:23:36;;;;;;;55.50;25.83;;;;;;;;;;10498789;28;20447;-73
2023/03/04 21:28:36;;;;;;;45.83;22.73;;;;;;;;;;10474347;28;20024;-74
2023/03/04 21:33:37;;;;;;;48.80;20.55;;;;;;;;;;10499222;28;20737;-73
2023/03/04 21:38:37;;;;;;;41.37;18.70;;;;;;;;;;10484111;28;20104;-75
2023/03/04 21:43:37;;;;;;;45.97;19.87;;;;;;;;;;10493371;28;20506;-75
2023/03/04 21:48:38;;;;;;;43.40;19.97;;;;;;;;;;10487205;28;20122;-78
2023/03/04 21:53:38;;;;;;;39.10;18.73;;;;;;;;;;10498160;28;21928;-78
2023/03/04 21:58:41;;;;;;;36.13;19.00;;;;;;;;;;10507438;28;20020;-75
2023/03/04 22:03:42;;;;;;;40.13;18.70;;;;;;;;;;10496102;28;20028;-74
2023/03/04 22:08:42;;;;;;;42.17;18.30;;;;;;;;;;10488664;28;20032;-74
2023/03/04 22:13:42;;;;;;;41.22;20.08;;;;;;;;;;10489936;28;20413;-74
2023/03/04 22:18:43;;;;;;;39.20;18.85;;;;;;;;;;10499710;28;20477;-75
2023/03/04 22:23:43;;;;;;;43.65;20.65;;;;;;;;;;10521259;28;20032;-73
2023/03/04 22:28:46;;;;;;;39.70;19.00;;;;;;;;;;10523248;28;20554;-80
2023/03/04 22:33:47;;;;;;;45.42;18.92;;;;;;;;;;10504679;28;20024;-79
2023/03/04 22:38:47;;;;;;;39.30;17.57;;;;;;;;;;10507380;28;20489;-75
2023/03/04 22:43:48;;;;;;;46.55;19.65;;;;;;;;;;10506467;28;20031;-77
2023/03/04 22:48:49;;;;;;;44.97;19.25;;;;;;;;;;10505900;28;20044;-74
2023/03/04 22:53:50;;;;;;;39.75;17.90;;;;;;;;;;10506818;28;20505;-78
2023/03/04 22:58:50;;;;;;;39.40;20.15;;;;;;;;;;10516462;28;20115;-74
2023/03/04 23:03:51;;;;;;;41.05;17.90;;;;;;;;;;10515623;28;20042;-74
2023/03/04 23:08:51;;;;;;;40.83;18.70;;;;;;;;;;10512677;28;20078;-74
2023/03/04 23:13:52;;;;;;;50.63;20.48;;;;;;;;;;10529147;28;20027;-74
2023/03/04 23:18:53;;;;;;;47.60;20.08;;;;;;;;;;10531806;28;20035;-75
2023/03/04 23:23:53;;;;;;;43.57;19.13;;;;;;;;;;10511942;28;20413;-73
2023/03/04 23:28:55;;;;;;;49.70;21.20;;;;;;;;;;10528632;28;20059;-73
2023/03/04 23:33:56;;;;;;;50.30;22.55;;;;;;;;;;10525704;28;20035;-73
2023/03/04 23:38:57;;;;;;;51.47;23.35;;;;;;;;;;10511637;28;20016;-73
2023/03/04 23:43:58;;;;;;;49.95;22.42;;;;;;;;;;10530052;28;20547;-73
2023/03/04 23:48:59;;;;;;;54.92;22.83;;;;;;;;;;10511954;28;20044;-76
2023/03/04 23:53:59;;;;;;;53.33;22.23;;;;;;;;;;10510521;28;20031;-73
2023/03/04 23:59:00;;;;;;;53.97;21.97;;;;;;;;;;10529135;28;20111;-82
